Time;durP1;ratioP1;P1;durP2;ratioP2;P2;SDS_P1;SDS_P2;PMS_P1;PMS_P2;Temp;Humidity;BMP_temperature;BMP_pressure;BME280_temperature;BME280_humidity;BME280_pressure;Samples;Min_cycle;Max_cycle;Signal;HPM_P1;HPM_P2
2022/11/11 00:01:04;;;;;;;10.97;5.37;;;10.30;99.90;9.60;101171;;;;579360;244;24186;-79
2022/11/11 00:03:32;;;;;;;8.97;6.23;;;10.30;99.90;9.70;101171;;;;579750;244;24070;-79
2022/11/11 00:06:00;;;;;;;15.23;6.20;;;10.30;99.90;9.70;101166;;;;588772;244;24075;-81
2022/11/11 00:08:28;;;;;;;10.60;6.27;;;10.30;99.90;9.70;101148;;;;579341;244;24141;-84
2022/11/11 00:11:10;;;;;;;11.07;5.70;;;10.30;99.90;9.70;101148;;;;579772;244;24083;-81
2022/11/11 00:13:39;;;;;;;14.20;6.30;;;10.30;99.90;9.60;101159;;;;579999;244;24091;-82
2022/11/11 00:16:16;;;;;;;6.53;5.37;;;10.30;99.90;9.60;101159;;;;580488;243;25201;-82
2022/11/11 00:26:41;;;;;;;13.53;5.97;;;10.20;99.90;9.50;101168;;;;579972;244;24132;-85
2022/11/11 00:29:08;;;;;;;13.17;6.70;;;10.10;99.90;9.50;101174;;;;580056;244;24111;-80
2022/11/11 00:32:21;;;;;;;14.73;6.20;;;10.10;99.90;9.50;101175;;;;588733;243;24055;-83
2022/11/11 00:34:04;;;;;;;11.03;5.67;;;10.10;99.90;9.40;101188;;;;587852;244;24090;-80
2022/11/11 00:36:32;;;;;;;7.40;5.27;;;10.10;99.90;9.50;101185;;;;588443;243;24154;-81
2022/11/11 00:39:04;;;;;;;15.10;6.30;;;10.10;99.90;9.40;101193;;;;587997;243;24095;-84
2022/11/11 00:41:29;;;;;;;12.33;6.30;;;10.00;99.90;9.40;101181;;;;588530;244;24151;-83
2022/11/11 00:43:57;;;;;;;9.23;5.23;;;10.00;99.90;9.40;101183;;;;588627;243;24075;-82
2022/11/11 00:51:57;;;;;;;10.83;5.77;;;10.00;99.90;9.30;101195;;;;580360;244;24052;-81
2022/11/11 00:54:25;;;;;;;7.57;4.77;;;9.90;99.90;9.30;101191;;;;589166;244;24115;-81
2022/11/11 00:56:53;;;;;;;16.13;5.43;;;9.90;99.90;9.30;101183;;;;579687;244;24090;-80
2022/11/11 00:59:21;;;;;;;10.70;5.80;;;9.90;99.90;9.30;101185;;;;588458;244;24058;-82
2022/11/11 01:01:49;;;;;;;9.37;5.33;;;9.90;99.90;9.20;101176;;;;588886;244;24068;-81
2022/11/11 01:04:17;;;;;;;12.80;6.30;;;9.90;99.90;9.20;101176;;;;566771;248;24164;-82
2022/11/11 01:06:45;;;;;;;10.77;5.50;;;9.90;99.90;9.20;101171;;;;579545;244;24086;-83
2022/11/11 01:09:12;;;;;;;12.60;5.60;;;9.90;99.90;9.20;101169;;;;588520;244;24075;-83
2022/11/11 01:11:40;;;;;;;9.53;5.20;;;9.90;99.90;9.30;101167;;;;588708;244;24055;-83
2022/11/11 01:14:09;;;;;;;9.57;5.90;;;9.90;99.90;9.30;101172;;;;588311;243;24186;-85
2022/11/11 01:16:37;;;;;;;11.53;5.50;;;10.00;99.90;9.30;101163;;;;587933;244;24086;-83
2022/11/11 01:19:05;;;;;;;8.97;5.80;;;10.00;99.90;9.40;101157;;;;587979;244;24138;-83
2022/11/11 01:21:33;;;;;;;8.50;5.93;;;10.00;99.90;9.40;101150;;;;587976;244;24080;-80
2022/11/11 01:24:04;;;;;;;11.93;5.77;;;10.10;99.90;9.40;101138;;;;578454;244;24087;-80
2022/11/11 01:26:30;;;;;;;14.60;8.00;;;10.10;99.90;9.50;101141;;;;573401;244;35166;-81
2022/11/11 01:29:02;;;;;;;8.40;6.07;;;10.10;99.90;9.50;101140;;;;589039;242;24108;-80
2022/11/11 01:31:29;;;;;;;15.57;6.27;;;10.10;99.90;9.50;101132;;;;576450;244;24082;-83
2022/11/11 01:33:54;;;;;;;11.53;6.27;;;10.20;99.90;9.50;101128;;;;579133;244;24129;-81
2022/11/11 01:36:22;;;;;;;10.40;6.10;;;10.20;99.90;9.50;101122;;;;579465;244;24100;-80
2022/11/11 01:38:50;;;;;;;12.77;6.13;;;10.20;99.90;9.50;101116;;;;579165;244;24062;-79
2022/11/11 01:41:36;;;;;;;13.17;5.80;;;10.20;99.90;9.60;101128;;;;579030;244;24142;-80
2022/11/11 01:44:13;;;;;;;9.33;5.87;;;10.20;99.90;9.60;101123;;;;588387;244;24098;-82
2022/11/11 01:46:59;;;;;;;8.83;5.83;;;10.20;99.90;9.60;101118;;;;579947;244;24052;-79
2022/11/11 01:49:36;;;;;;;17.73;6.50;;;10.30;99.90;9.60;101114;;;;580266;244;24119;-81
2022/11/11 01:52:24;;;;;;;10.03;6.20;;;10.30;99.90;9.60;101114;;;;579890;244;24118;-79
2022/11/11 01:55:09;;;;;;;8.50;6.07;;;10.30;99.90;9.60;101115;;;;565574;248;24082;-80
2022/11/11 01:57:43;;;;;;;8.50;5.90;;;10.30;99.90;9.60;101132;;;;579297;244;26257;-80
2022/11/11 02:00:11;;;;;;;9.53;5.93;;;10.20;99.90;9.50;101137;;;;578735;244;24121;-79
2022/11/11 02:02:48;;;;;;;10.43;5.97;;;10.20;99.90;9.50;101149;;;;578724;244;24192;-80
2022/11/11 02:08:07;;;;;;;7.63;6.00;;;10.10;99.90;9.40;101160;;;;582060;244;24069;-80
2022/11/11 02:10:35;;;;;;;11.97;6.00;;;10.10;99.90;9.40;101155;;;;578283;244;24057;-82
2022/11/11 02:15:47;;;;;;;8.87;5.37;;;10.10;99.90;9.40;101169;;;;578800;244;24134;-80
2022/11/11 02:18:15;;;;;;;9.63;5.07;;;10.00;99.90;9.50;101168;;;;587918;244;24107;-80
2022/11/11 02:20:46;;;;;;;10.83;5.70;;;10.10;99.90;9.50;101178;;;;587885;244;24081;-80
2022/11/11 02:23:38;;;;;;;9.80;5.20;;;10.10;99.90;9.40;101168;;;;578645;244;24241;-80
2022/11/11 02:26:06;;;;;;;11.37;5.53;;;10.10;99.90;9.50;101174;;;;551703;255;24181;-80
2022/11/11 02:28:35;;;;;;;5.13;4.70;;;10.10;99.90;9.50;101173;;;;574462;244;24128;-80
2022/11/11 02:31:02;;;;;;;8.10;5.00;;;10.10;99.90;9.50;101192;;;;578796;244;24082;-81
2022/11/11 02:33:30;;;;;;;6.17;4.67;;;10.10;99.90;9.50;101198;;;;578916;244;24083;-81
2022/11/11 02:35:58;;;;;;;10.43;5.00;;;10.10;99.90;9.50;101188;;;;587758;244;24094;-79
2022/11/11 02:38:26;;;;;;;7.33;4.97;;;10.10;99.90;9.50;101186;;;;587982;242;24142;-80
2022/11/11 02:43:41;;;;;;;8.80;4.43;;;10.20;99.90;9.50;101191;;;;579842;244;24072;-79
2022/11/11 02:46:09;;;;;;;11.60;5.10;;;10.20;99.90;9.60;101194;;;;579669;244;24087;-79
2022/11/11 02:48:37;;;;;;;12.80;5.50;;;10.20;99.90;9.60;101200;;;;588550;243;24128;-82
2022/11/11 02:51:07;;;;;;;9.73;4.77;;;10.20;99.90;9.60;101198;;;;588102;243;24083;-80
2022/11/11 02:53:33;;;;;;;7.03;4.77;;;10.30;99.90;9.70;101194;;;;579027;244;24159;-79
2022/11/11 02:56:02;;;;;;;10.43;4.83;;;10.40;99.90;9.70;101193;;;;588167;243;24066;-80
2022/11/11 02:58:30;;;;;;;6.00;4.93;;;10.40;99.90;9.80;101188;;;;587785;243;24123;-80
2022/11/11 03:01:02;;;;;;;7.97;4.73;;;10.40;99.90;9.80;101193;;;;587562;243;24060;-80
2022/11/11 03:03:26;;;;;;;9.20;4.80;;;10.40;99.90;9.80;101192;;;;578953;244;24056;-79
2022/11/11 03:05:57;;;;;;;4.90;4.30;;;10.50;99.90;9.80;101195;;;;588182;243;24072;-80
2022/11/11 03:08:22;;;;;;;7.97;4.10;;;10.50;99.90;9.80;101201;;;;575028;244;24164;-81
2022/11/11 03:10:50;;;;;;;7.77;4.70;;;10.50;99.90;9.90;101200;;;;588140;244;24037;-79
2022/11/11 03:13:18;;;;;;;8.43;4.67;;;10.50;99.90;9.90;101196;;;;587980;243;24069;-81
2022/11/11 03:15:46;;;;;;;8.53;4.23;;;10.50;99.90;9.90;101209;;;;587637;243;24070;-79
2022/11/11 03:18:14;;;;;;;10.87;5.23;;;10.60;99.90;9.90;101216;;;;587432;244;24098;-80
2022/11/11 03:23:33;;;;;;;13.03;4.90;;;10.60;99.90;10.00;101218;;;;578292;244;24102;-79
2022/11/11 03:25:57;;;;;;;7.90;4.53;;;10.60;99.90;10.00;101210;;;;586898;244;24062;-80
2022/11/11 03:28:25;;;;;;;5.80;4.27;;;10.60;99.90;10.00;101197;;;;587612;244;24062;-80
2022/11/11 03:30:53;;;;;;;10.57;5.00;;;10.60;99.90;10.00;101189;;;;587827;244;24097;-80
2022/11/11 03:33:21;;;;;;;6.73;4.90;;;10.60;99.90;10.00;101192;;;;587743;244;25152;-83
2022/11/11 03:35:49;;;;;;;9.10;4.53;;;10.70;99.90;10.00;101182;;;;587983;244;24116;-83
2022/11/11 03:38:23;;;;;;;5.87;3.97;;;10.70;99.90;10.00;101179;;;;587957;242;24098;-82
2022/11/11 03:40:52;;;;;;;13.17;4.33;;;10.70;99.90;10.00;101178;;;;588110;244;24089;-83
2022/11/11 03:43:19;;;;;;;7.63;4.20;;;10.70;99.90;10.00;101188;;;;578722;244;24110;-81
2022/11/11 03:45:50;;;;;;;11.47;3.63;;;10.70;99.90;10.00;101180;;;;587838;244;24073;-85
2022/11/11 03:48:18;;;;;;;7.37;4.00;;;10.70;99.90;10.00;101174;;;;578713;244;24072;-84
2022/11/11 03:50:46;;;;;;;6.20;3.37;;;10.70;99.90;10.00;101168;;;;579189;243;24061;-84
2022/11/11 03:53:11;;;;;;;10.67;4.40;;;10.70;99.90;10.00;101162;;;;581175;244;24095;-84
2022/11/11 03:55:39;;;;;;;11.63;5.97;;;10.70;99.90;10.10;101163;;;;575093;244;35196;-84
2022/11/11 03:58:07;;;;;;;6.70;3.97;;;10.70;99.90;10.00;101175;;;;588966;243;24093;-83
2022/11/11 04:00:38;;;;;;;10.80;4.13;;;10.70;99.90;10.10;101169;;;;579668;244;24095;-82
2022/11/11 04:11:42;;;;;;;9.13;3.87;;;10.70;99.90;10.10;101171;;;;579215;244;24069;-80
2022/11/11 04:16:59;;;;;;;8.33;4.20;;;10.80;99.90;10.10;101170;;;;578954;244;24151;-83
2022/11/11 04:22:14;;;;;;;8.40;4.13;;;10.80;99.90;10.10;101173;;;;579434;244;24125;-82
2022/11/11 04:27:24;;;;;;;15.63;4.17;;;10.80;99.90;10.20;101169;;;;579575;244;24072;-80
2022/11/11 04:29:52;;;;;;;5.87;4.30;;;10.80;99.90;10.20;101171;;;;588146;244;24038;-80
2022/11/11 04:32:35;;;;;;;9.30;3.50;;;10.80;99.90;10.20;101170;;;;578756;244;24114;-81
2022/11/11 04:35:03;;;;;;;9.20;4.07;;;10.80;99.90;10.20;101161;;;;579010;244;24073;-81
2022/11/11 04:37:33;;;;;;;12.43;4.70;;;10.80;99.90;10.20;101149;;;;578654;244;24174;-84
2022/11/11 04:42:44;;;;;;;7.70;4.40;;;10.80;99.90;10.10;101138;;;;578576;244;24090;-79
2022/11/11 04:45:27;;;;;;;5.80;4.47;;;10.80;99.90;10.10;101132;;;;578881;244;24071;-80
2022/11/11 04:48:04;;;;;;;9.30;3.83;;;10.70;99.90;10.10;101134;;;;578466;244;24092;-80
2022/11/11 04:50:32;;;;;;;11.37;4.57;;;10.70;99.90;10.00;101141;;;;574227;244;24129;-84
2022/11/11 04:53:03;;;;;;;10.17;4.93;;;10.70;99.90;10.00;101146;;;;578722;244;24074;-82
2022/11/11 04:58:17;;;;;;;8.73;4.23;;;10.60;99.90;9.80;101141;;;;581924;244;24103;-82
2022/11/11 05:00:42;;;;;;;10.90;5.40;;;10.50;99.90;9.80;101139;;;;578822;244;24155;-81
2022/11/11 05:03:17;;;;;;;6.40;4.93;;;10.30;99.90;9.70;101146;;;;580344;243;24082;-80
2022/11/11 05:11:24;;;;;;;6.67;3.73;;;10.00;99.90;9.40;101137;;;;580270;244;24108;-82
2022/11/11 05:22:16;;;;;;;5.43;3.60;;;10.00;99.90;9.40;101131;;;;580086;244;24045;-81
2022/11/11 05:27:30;;;;;;;3.90;3.60;;;10.00;99.90;9.40;101125;;;;588389;243;24066;-83
2022/11/11 05:29:57;;;;;;;12.10;4.67;;;10.00;99.90;9.40;101135;;;;579355;244;24104;-84
2022/11/11 05:32:25;;;;;;;6.97;4.00;;;10.00;99.90;9.40;101142;;;;588302;243;24133;-82
2022/11/11 05:34:53;;;;;;;7.00;3.57;;;10.00;99.90;9.40;101136;;;;579101;244;24094;-81
2022/11/11 05:37:22;;;;;;;9.73;3.80;;;10.00;99.90;9.30;101140;;;;579520;244;24136;-81
2022/11/11 05:39:50;;;;;;;8.17;3.90;;;10.00;99.90;9.30;101137;;;;588229;244;24053;-80
2022/11/11 05:42:18;;;;;;;10.73;4.07;;;9.90;99.90;9.20;101141;;;;587816;244;24067;-80
2022/11/11 05:44:46;;;;;;;10.17;4.00;;;9.90;99.90;9.20;101132;;;;587729;244;24066;-80
2022/11/11 05:47:14;;;;;;;13.70;3.57;;;9.80;99.90;9.20;101149;;;;587544;244;24079;-79
2022/11/11 05:49:42;;;;;;;7.27;4.00;;;9.80;99.90;9.20;101144;;;;578771;244;24084;-81
2022/11/11 05:52:10;;;;;;;11.97;4.37;;;9.90;99.90;9.30;101146;;;;587578;244;24106;-80
2022/11/11 05:54:39;;;;;;;19.33;3.33;;;9.90;99.90;9.30;101139;;;;578958;244;24168;-80
2022/11/11 05:57:07;;;;;;;3.27;2.97;;;10.00;99.90;9.40;101135;;;;587477;244;24135;-79
2022/11/11 05:59:35;;;;;;;7.53;3.70;;;10.00;99.90;9.50;101129;;;;587368;244;24052;-81
2022/11/11 06:02:03;;;;;;;7.30;3.60;;;10.10;99.90;9.50;101131;;;;587581;244;24141;-81
2022/11/11 06:04:33;;;;;;;6.97;2.90;;;10.10;99.90;9.60;101137;;;;578583;244;24080;-81
2022/11/11 06:06:59;;;;;;;7.00;3.70;;;10.30;99.90;9.60;101129;;;;578797;244;24115;-83
2022/11/11 06:09:27;;;;;;;4.17;3.37;;;10.30;99.90;9.70;101135;;;;587845;244;24138;-82
2022/11/11 06:11:55;;;;;;;9.90;4.77;;;10.30;99.90;9.70;101136;;;;574283;244;35145;-84
2022/11/11 06:14:23;;;;;;;9.77;4.47;;;10.40;99.90;9.80;101151;;;;583792;242;35134;-85
2022/11/11 06:16:51;;;;;;;8.43;3.60;;;10.40;99.90;9.80;101157;;;;589258;243;24128;-83
2022/11/11 06:19:19;;;;;;;9.20;3.63;;;10.50;99.90;9.90;101169;;;;588993;243;24050;-83
2022/11/11 06:21:56;;;;;;;11.03;3.20;;;10.50;99.90;9.90;101162;;;;588624;243;24091;-80
2022/11/11 06:24:24;;;;;;;4.50;3.30;;;10.60;99.90;10.00;101166;;;;588598;243;24071;-82
2022/11/11 06:26:52;;;;;;;6.03;3.10;;;10.60;99.90;10.00;101159;;;;579495;244;24111;-81
2022/11/11 06:29:19;;;;;;;8.97;2.93;;;10.70;99.90;10.10;101164;;;;588907;243;24073;-79
2022/11/11 06:31:47;;;;;;;8.77;3.53;;;10.70;99.90;10.10;101178;;;;588100;243;24060;-81
2022/11/11 06:34:15;;;;;;;4.97;2.60;;;10.70;99.90;10.10;101179;;;;587789;243;24064;-80
2022/11/11 06:36:44;;;;;;;6.93;3.17;;;10.80;99.90;10.20;101193;;;;587907;243;24064;-79
2022/11/11 06:39:12;;;;;;;5.13;3.23;;;10.80;99.90;10.20;101199;;;;587793;244;24102;-80
2022/11/11 06:41:40;;;;;;;5.70;2.70;;;10.90;99.90;10.20;101200;;;;587962;243;24115;-80
2022/11/11 06:44:08;;;;;;;5.43;3.20;;;10.90;99.90;10.30;101194;;;;587774;243;24087;-80
2022/11/11 06:46:40;;;;;;;6.83;2.73;;;11.00;99.90;10.30;101192;;;;578811;244;24081;-81
2022/11/11 06:49:05;;;;;;;9.53;3.37;;;10.90;99.90;10.30;101207;;;;578538;244;24153;-82
2022/11/11 06:51:33;;;;;;;5.53;3.10;;;11.00;99.90;10.40;101204;;;;578555;244;24094;-83
2022/11/11 06:54:01;;;;;;;4.80;2.50;;;11.00;99.90;10.40;101198;;;;587634;244;24078;-81
2022/11/11 06:56:28;;;;;;;5.47;3.13;;;11.00;99.90;10.40;101195;;;;588020;244;24057;-84
2022/11/11 06:58:56;;;;;;;8.63;3.43;;;11.00;99.90;10.50;101191;;;;588228;244;24107;-81
2022/11/11 07:01:24;;;;;;;4.47;2.93;;;11.10;99.90;10.40;101198;;;;579209;244;24145;-81
2022/11/11 07:03:52;;;;;;;12.17;3.77;;;11.10;99.90;10.50;101211;;;;588128;244;24123;-84
2022/11/11 07:06:20;;;;;;;6.70;3.27;;;11.10;99.90;10.50;101202;;;;588097;244;24052;-81
2022/11/11 07:08:48;;;;;;;5.70;3.13;;;11.10;99.90;10.50;101199;;;;578959;244;24130;-80
2022/11/11 07:11:16;;;;;;;6.27;3.07;;;11.20;99.90;10.50;101211;;;;587883;244;24091;-80
2022/11/11 07:13:44;;;;;;;8.67;3.07;;;11.20;99.90;10.50;101212;;;;578498;244;24093;-81
2022/11/11 07:16:12;;;;;;;8.77;3.33;;;11.20;99.90;10.50;101209;;;;587348;244;24120;-81
2022/11/11 07:18:40;;;;;;;7.73;2.90;;;11.20;99.90;10.60;101197;;;;587522;244;24194;-80
2022/11/11 07:21:08;;;;;;;4.33;2.77;;;11.20;99.90;10.60;101199;;;;587429;244;24142;-80
2022/11/11 07:23:36;;;;;;;8.13;3.17;;;11.20;99.90;10.60;101213;;;;587593;244;24082;-80
2022/11/11 07:26:04;;;;;;;6.57;3.20;;;11.20;99.90;10.60;101205;;;;588476;242;24042;-79
2022/11/11 07:28:32;;;;;;;6.87;3.17;;;11.20;99.90;10.60;101206;;;;589042;243;24119;-79
2022/11/11 07:31:00;;;;;;;8.30;3.73;;;11.30;99.90;10.60;101211;;;;588353;243;24135;-79
2022/11/11 07:33:29;;;;;;;9.47;3.57;;;11.30;99.90;10.70;101218;;;;588218;243;24202;-81
2022/11/11 07:35:57;;;;;;;8.30;3.27;;;11.30;99.90;10.70;101211;;;;588202;243;24078;-80
2022/11/11 07:38:25;;;;;;;8.10;3.40;;;11.30;99.90;10.70;101223;;;;588200;243;24062;-80
2022/11/11 07:40:53;;;;;;;7.50;3.13;;;11.30;99.90;10.70;101216;;;;579578;244;24072;-80
2022/11/11 07:43:20;;;;;;;4.93;2.87;;;11.40;99.90;10.80;101229;;;;579346;244;24138;-79
2022/11/11 07:45:48;;;;;;;8.50;3.40;;;11.40;99.90;10.80;101219;;;;588104;244;24052;-81
2022/11/11 07:48:20;;;;;;;7.30;3.07;;;11.50;99.90;10.90;101208;;;;588205;244;24099;-79
2022/11/11 07:50:44;;;;;;;5.90;3.47;;;11.50;99.90;11.00;101223;;;;578429;244;24122;-80
2022/11/11 07:53:12;;;;;;;9.33;3.13;;;11.60;99.90;11.00;101230;;;;588122;243;24140;-81
2022/11/11 07:55:40;;;;;;;4.97;2.83;;;11.60;99.90;11.10;101217;;;;588026;243;24047;-81
2022/11/11 07:58:08;;;;;;;5.13;2.73;;;11.70;99.90;11.10;101222;;;;588409;243;24068;-81
2022/11/11 08:00:36;;;;;;;6.13;2.73;;;11.70;99.90;11.20;101210;;;;588432;243;24045;-80
2022/11/11 08:03:04;;;;;;;6.47;2.80;;;11.80;99.90;11.20;101204;;;;588146;244;24065;-81
2022/11/11 08:05:32;;;;;;;8.13;3.67;;;11.80;99.90;11.30;101219;;;;579102;244;24135;-81
2022/11/11 08:08:06;;;;;;;11.43;3.53;;;11.90;99.90;11.30;101224;;;;588172;244;24117;-79
2022/11/11 08:10:34;;;;;;;4.90;3.17;;;11.90;99.90;11.30;101213;;;;579144;244;24118;-79
2022/11/11 08:15:51;;;;;;;8.37;3.20;;;11.90;99.90;11.30;101229;;;;578852;244;24060;-82
2022/11/11 08:18:15;;;;;;;6.97;3.20;;;11.90;99.90;11.30;101228;;;;576718;244;24099;-80
2022/11/11 08:20:43;;;;;;;6.63;3.40;;;11.90;99.90;11.30;101227;;;;587742;244;24070;-80
2022/11/11 08:23:13;;;;;;;6.60;3.47;;;11.90;99.90;11.30;101235;;;;578682;244;24129;-79
2022/11/11 08:25:42;;;;;;;9.90;3.77;;;12.00;99.90;11.40;101236;;;;579143;244;24081;-82
2022/11/11 08:28:10;;;;;;;4.40;2.97;;;12.00;99.90;11.40;101229;;;;587761;244;24155;-79
2022/11/11 08:30:41;;;;;;;5.23;2.87;;;12.00;99.90;11.40;101231;;;;587907;244;24079;-83
2022/11/11 08:33:06;;;;;;;4.20;2.53;;;12.00;99.90;11.40;101244;;;;579640;244;24094;-82
2022/11/11 08:35:37;;;;;;;6.53;3.20;;;12.00;99.90;11.40;101236;;;;579764;244;24110;-81
2022/11/11 08:38:06;;;;;;;7.50;3.23;;;12.00;99.90;11.40;101234;;;;590163;242;24132;-80
2022/11/11 08:40:33;;;;;;;5.87;3.07;;;12.00;99.90;11.40;101237;;;;589111;243;24106;-82
2022/11/11 08:43:02;;;;;;;4.37;3.00;;;11.90;99.90;11.30;101239;;;;588381;243;24076;-81
2022/11/11 08:45:35;;;;;;;11.47;3.77;;;11.90;99.90;11.30;101234;;;;579376;244;24055;-80
2022/11/11 08:48:00;;;;;;;11.03;3.20;;;11.90;99.90;11.30;101233;;;;578860;244;24071;-80
2022/11/11 08:50:27;;;;;;;8.67;3.33;;;11.90;99.90;11.30;101230;;;;579117;244;24069;-80
2022/11/11 08:52:55;;;;;;;5.47;3.13;;;11.90;99.90;11.30;101230;;;;575970;244;24088;-80
2022/11/11 08:55:23;;;;;;;11.13;3.53;;;11.90;99.90;11.30;101233;;;;578984;244;24067;-82
2022/11/11 08:58:00;;;;;;;10.17;3.63;;;11.90;99.90;11.30;101236;;;;587766;243;24064;-81
2022/11/11 09:00:25;;;;;;;11.63;3.80;;;11.90;99.90;11.30;101243;;;;579070;244;24089;-83
2022/11/11 09:02:53;;;;;;;8.30;3.70;;;11.90;99.90;11.30;101248;;;;587894;243;24064;-80
2022/11/11 09:05:21;;;;;;;6.17;3.37;;;11.90;99.90;11.30;101258;;;;578733;244;24061;-81
2022/11/11 09:07:49;;;;;;;7.27;3.30;;;11.90;99.90;11.30;101252;;;;587982;243;24142;-82
2022/11/11 09:10:17;;;;;;;5.93;3.37;;;11.90;99.90;11.40;101262;;;;587847;243;24071;-83
2022/11/11 09:12:45;;;;;;;7.77;3.73;;;12.00;99.90;11.40;101255;;;;587912;243;24109;-82
2022/11/11 09:15:13;;;;;;;5.13;3.20;;;12.00;99.90;11.40;101265;;;;587697;244;24082;-84
2022/11/11 09:17:41;;;;;;;8.47;3.17;;;12.00;99.90;11.40;101254;;;;578652;244;24114;-82
2022/11/11 09:20:13;;;;;;;7.53;3.37;;;12.00;99.90;11.40;101243;;;;578542;244;24065;-82
2022/11/11 09:22:43;;;;;;;9.53;3.50;;;12.00;99.90;11.40;101247;;;;578253;244;24072;-84
2022/11/11 09:25:22;;;;;;;10.57;3.53;;;12.00;99.90;11.50;101246;;;;578874;244;24196;-81
2022/11/11 09:27:40;;;;;;;8.17;3.40;;;12.10;99.90;11.50;101234;;;;586889;244;24073;-80
2022/11/11 09:30:09;;;;;;;6.77;3.23;;;12.10;99.90;11.50;101238;;;;578897;244;24098;-85
2022/11/11 09:32:37;;;;;;;6.30;3.97;;;12.10;99.90;11.50;101239;;;;578563;244;24053;-81
2022/11/11 09:35:07;;;;;;;7.93;3.57;;;12.10;99.90;11.50;101249;;;;587937;244;24081;-80
2022/11/11 09:37:33;;;;;;;7.43;4.07;;;12.10;99.90;11.50;101258;;;;578455;244;24072;-85
2022/11/11 09:40:01;;;;;;;9.43;3.93;;;12.10;99.90;11.50;101256;;;;587575;244;24063;-81
2022/11/11 09:42:41;;;;;;;7.73;4.07;;;12.10;99.90;11.50;101253;;;;587887;244;25203;-82
2022/11/11 09:45:23;;;;;;;8.83;3.73;;;12.10;99.90;11.50;101252;;;;578888;244;24082;-84
2022/11/11 09:48:27;;;;;;;8.82;4.75;;;12.10;99.90;11.40;101259;;;;573836;244;35114;-84
2022/11/11 09:50:55;;;;;;;10.50;4.50;;;12.00;99.90;11.40;101264;;;;580942;243;24065;-84
2022/11/11 09:53:28;;;;;;;9.80;4.07;;;12.00;99.90;11.40;101269;;;;579649;244;24067;-83
2022/11/11 09:55:56;;;;;;;8.40;4.70;;;12.00;99.90;11.40;101277;;;;579640;244;24137;-85
2022/11/11 09:58:33;;;;;;;10.07;4.13;;;12.00;99.90;11.40;101266;;;;566358;249;24098;-82
2022/11/11 10:01:16;;;;;;;8.73;3.73;;;12.00;99.90;11.50;101260;;;;579740;244;24060;-82
2022/11/11 10:03:46;;;;;;;8.03;3.60;;;12.10;99.90;11.50;101269;;;;579641;244;24055;-82
2022/11/11 10:06:21;;;;;;;8.83;4.10;;;12.10;99.90;11.50;101273;;;;580252;244;24133;-84
2022/11/11 10:09:07;;;;;;;13.20;4.07;;;12.10;99.90;11.60;101273;;;;587288;243;24101;-81
2022/11/11 10:12:11;;;;;;;11.87;3.80;;;12.20;99.90;11.60;101286;;;;580063;244;24056;-84
2022/11/11 10:14:45;;;;;;;9.80;4.90;;;12.20;99.90;11.70;101281;;;;579160;244;24128;-83
2022/11/11 10:17:25;;;;;;;6.83;3.47;;;12.30;99.90;11.70;101273;;;;579321;244;24131;-81
2022/11/11 10:20:12;;;;;;;6.00;3.90;;;12.30;99.90;11.70;101279;;;;579375;244;24167;-82
2022/11/11 10:22:39;;;;;;;4.10;3.63;;;12.30;99.90;11.70;101278;;;;579936;244;24078;-85
2022/11/11 10:25:13;;;;;;;10.17;3.87;;;12.30;99.90;11.70;101274;;;;578820;244;24193;-83
2022/11/11 10:27:41;;;;;;;12.37;3.80;;;12.30;99.90;11.70;101276;;;;577343;244;24071;-83
2022/11/11 10:30:31;;;;;;;6.00;3.87;;;12.30;99.90;11.70;101272;;;;579082;244;24051;-83
2022/11/11 10:33:11;;;;;;;10.07;4.37;;;12.30;99.90;11.70;101265;;;;579480;244;24052;-83
2022/11/11 10:35:39;;;;;;;9.80;3.67;;;12.30;99.90;11.70;101258;;;;579683;244;24063;-80
2022/11/11 10:38:10;;;;;;;6.40;3.60;;;12.30;99.90;11.70;101254;;;;579858;244;24128;-81
2022/11/11 10:40:41;;;;;;;7.03;4.00;;;12.30;99.90;11.70;101253;;;;579573;244;24094;-83
2022/11/11 10:43:18;;;;;;;8.77;4.10;;;12.30;99.90;11.70;101256;;;;578935;244;24065;-81
2022/11/11 10:46:20;;;;;;;8.68;4.87;;;12.30;99.90;11.70;101258;;;;563335;244;35154;-82
2022/11/11 10:49:11;;;;;;;5.97;4.23;;;12.30;99.90;11.70;101256;;;;587914;244;24114;-80
2022/11/11 10:51:38;;;;;;;9.77;4.77;;;12.30;99.90;11.70;101254;;;;576082;244;24146;-80
2022/11/11 10:54:14;;;;;;;9.33;3.63;;;12.30;99.90;11.70;101240;;;;578486;244;24091;-80
2022/11/11 10:56:46;;;;;;;5.50;3.80;;;12.30;99.90;11.80;101259;;;;578669;244;24146;-82
2022/11/11 10:59:19;;;;;;;11.53;4.03;;;12.30;99.90;11.80;101260;;;;578307;244;24077;-80
2022/11/11 11:01:44;;;;;;;6.57;3.77;;;12.40;99.90;11.80;101247;;;;579763;243;24103;-81
2022/11/11 11:04:14;;;;;;;7.67;3.43;;;12.50;99.90;11.90;101244;;;;579767;244;24073;-80
2022/11/11 11:06:42;;;;;;;6.93;3.83;;;12.50;99.90;11.90;101255;;;;580011;244;24065;-80
2022/11/11 11:09:40;;;;;;;7.90;4.50;;;12.50;99.90;11.90;101252;;;;580276;244;24066;-82
2022/11/11 11:12:15;;;;;;;8.73;4.37;;;12.50;99.90;11.90;101266;;;;579938;244;24108;-83
2022/11/11 11:14:45;;;;;;;10.70;4.63;;;12.50;99.90;11.90;101267;;;;566643;249;24094;-85
2022/11/11 11:17:18;;;;;;;15.57;4.53;;;12.50;99.90;11.90;101269;;;;580585;243;24065;-83
2022/11/11 11:19:46;;;;;;;4.20;3.80;;;12.50;99.90;11.90;101275;;;;586991;244;24114;-85
2022/11/11 11:22:14;;;;;;;8.50;3.87;;;12.50;99.90;11.90;101277;;;;578078;244;24071;-82
2022/11/11 11:24:42;;;;;;;6.07;3.60;;;12.50;99.90;11.90;101277;;;;588416;243;24055;-82
2022/11/11 11:27:10;;;;;;;9.67;3.93;;;12.50;99.90;11.90;101271;;;;588348;243;25126;-83
2022/11/11 11:29:41;;;;;;;8.13;3.77;;;12.50;99.90;12.00;101274;;;;588329;243;24060;-79
2022/11/11 11:32:17;;;;;;;10.37;3.97;;;12.50;99.90;12.00;101280;;;;579192;244;24095;-84
2022/11/11 11:34:54;;;;;;;8.93;3.83;;;12.60;99.90;12.00;101271;;;;589545;243;24123;-80
2022/11/11 11:37:22;;;;;;;8.67;4.00;;;12.60;99.90;12.00;101265;;;;579263;244;24124;-79
2022/11/11 11:39:59;;;;;;;13.23;4.47;;;12.50;99.90;12.00;101271;;;;587761;243;24056;-79
2022/11/11 11:42:36;;;;;;;6.67;3.90;;;12.60;99.90;12.00;101263;;;;578720;244;24060;-79
2022/11/11 11:45:32;;;;;;;7.07;3.87;;;12.60;99.90;12.00;101266;;;;578787;244;24054;-81
2022/11/11 11:48:38;;;;;;;5.33;3.20;;;12.60;99.90;12.00;101272;;;;578635;244;26203;-82
2022/11/11 11:51:33;;;;;;;7.23;3.50;;;12.60;99.90;12.00;101273;;;;579114;244;24079;-80
2022/11/11 11:54:26;;;;;;;13.20;5.37;;;12.60;99.90;12.00;101259;;;;578806;244;25110;-80
2022/11/11 11:57:04;;;;;;;9.77;4.27;;;12.60;99.90;12.00;101260;;;;578558;244;24053;-79
2022/11/11 11:59:51;;;;;;;11.70;4.93;;;12.60;99.90;12.00;101272;;;;578294;244;24082;-80
2022/11/11 12:02:49;;;;;;;9.83;4.63;;;12.60;99.90;12.00;101271;;;;579432;244;24092;-79
2022/11/11 12:05:45;;;;;;;11.10;5.03;;;12.60;99.90;12.00;101267;;;;578627;244;25102;-78
2022/11/11 12:08:36;;;;;;;10.17;5.00;;;12.60;99.90;12.00;101268;;;;579915;244;24068;-79
2022/11/11 12:11:19;;;;;;;11.33;5.20;;;12.60;99.90;12.00;101270;;;;579591;242;24055;-80
2022/11/11 12:14:05;;;;;;;9.63;5.30;;;12.50;99.90;12.00;101271;;;;581256;244;24093;-81
2022/11/11 12:16:45;;;;;;;10.67;5.67;;;12.50;99.90;12.00;101268;;;;580400;244;24078;-79
2022/11/11 12:19:40;;;;;;;9.47;5.77;;;12.50;99.90;12.00;101276;;;;580083;244;24118;-78
2022/11/11 12:22:35;;;;;;;11.13;5.93;;;12.50;99.90;12.00;101278;;;;577248;244;24067;-81
2022/11/11 12:25:24;;;;;;;12.10;5.40;;;12.60;99.90;11.90;101274;;;;580716;244;24085;-80
2022/11/11 12:28:19;;;;;;;16.43;5.77;;;12.50;99.90;11.90;101271;;;;578915;244;24049;-79
2022/11/11 12:30:50;;;;;;;12.17;5.97;;;12.50;99.90;11.90;101268;;;;579554;244;24111;-79
2022/11/11 12:33:51;;;;;;;12.23;5.70;;;12.50;99.90;11.90;101274;;;;577459;244;24142;-79
2022/11/11 12:36:40;;;;;;;11.33;5.87;;;12.50;99.90;11.80;101273;;;;579479;244;24078;-80